sensor_id;sensor_type;location;lat;lon;timestamp;P1;durP1;ratioP1;P2;durP2;ratioP2
38089;SDS011;23904;52.322;10.232;2022-10-30T00:00:10;15.10;;;4.78;;
38089;SDS011;23904;52.322;10.232;2022-10-30T00:02:36;15.73;;;4.78;;
38089;SDS011;23904;52.322;10.232;2022-10-30T00:05:02;22.50;;;5.45;;
38089;SDS011;23904;52.322;10.232;2022-10-30T00:07:27;15.25;;;5.35;;
38089;SDS011;23904;52.322;10.232;2022-10-30T00:09:53;19.30;;;4.90;;
38089;SDS011;23904;52.322;10.232;2022-10-30T00:12:19;10.63;;;4.13;;
38089;SDS011;23904;52.322;10.232;2022-10-30T00:14:44;11.70;;;5.13;;
38089;SDS011;23904;52.322;10.232;2022-10-30T00:17:10;11.15;;;4.82;;
38089;SDS011;23904;52.322;10.232;2022-10-30T00:19:35;17.00;;;4.85;;
38089;SDS011;23904;52.322;10.232;2022-10-30T00:22:02;14.23;;;4.95;;
38089;SDS011;23904;52.322;10.232;2022-10-30T00:24:28;17.08;;;4.45;;
38089;SDS011;23904;52.322;10.232;2022-10-30T00:26:54;13.13;;;4.60;;
38089;SDS011;23904;52.322;10.232;2022-10-30T00:29:19;11.50;;;5.07;;
38089;SDS011;23904;52.322;10.232;2022-10-30T00:31:49;12.73;;;5.10;;
38089;SDS011;23904;52.322;10.232;2022-10-30T00:34:14;15.90;;;4.93;;
38089;SDS011;23904;52.322;10.232;2022-10-30T00:36:40;15.07;;;5.32;;
38089;SDS011;23904;52.322;10.232;2022-10-30T00:39:06;13.77;;;4.90;;
38089;SDS011;23904;52.322;10.232;2022-10-30T00:41:32;17.13;;;5.15;;
38089;SDS011;23904;52.322;10.232;2022-10-30T00:43:57;11.80;;;4.03;;
38089;SDS011;23904;52.322;10.232;2022-10-30T00:46:30;13.93;;;4.43;;
38089;SDS011;23904;52.322;10.232;2022-10-30T00:49:05;14.27;;;4.28;;
38089;SDS011;23904;52.322;10.232;2022-10-30T00:51:38;14.32;;;4.82;;
38089;SDS011;23904;52.322;10.232;2022-10-30T00:54:07;13.98;;;5.10;;
38089;SDS011;23904;52.322;10.232;2022-10-30T00:56:34;19.17;;;4.65;;
38089;SDS011;23904;52.322;10.232;2022-10-30T00:59:02;16.55;;;4.70;;
38089;SDS011;23904;52.322;10.232;2022-10-30T01:01:32;14.95;;;5.60;;
38089;SDS011;23904;52.322;10.232;2022-10-30T01:04:02;13.30;;;4.60;;
38089;SDS011;23904;52.322;10.232;2022-10-30T01:06:31;13.50;;;4.60;;
38089;SDS011;23904;52.322;10.232;2022-10-30T01:08:59;12.18;;;4.05;;
38089;SDS011;23904;52.322;10.232;2022-10-30T01:11:25;16.05;;;5.22;;
38089;SDS011;23904;52.322;10.232;2022-10-30T01:13:51;10.20;;;4.70;;
38089;SDS011;23904;52.322;10.232;2022-10-30T01:16:26;14.43;;;4.25;;
38089;SDS011;23904;52.322;10.232;2022-10-30T01:22:13;14.23;;;4.53;;
38089;SDS011;23904;52.322;10.232;2022-10-30T01:25:03;11.67;;;5.10;;
38089;SDS011;23904;52.322;10.232;2022-10-30T01:27:47;13.50;;;4.28;;
38089;SDS011;23904;52.322;10.232;2022-10-30T01:34:38;11.55;;;4.78;;
38089;SDS011;23904;52.322;10.232;2022-10-30T01:36:45;13.05;;;5.05;;
38089;SDS011;23904;52.322;10.232;2022-10-30T01:40:01;14.20;;;5.30;;
38089;SDS011;23904;52.322;10.232;2022-10-30T01:54:37;19.92;;;4.88;;
38089;SDS011;23904;52.322;10.232;2022-10-30T02:00:05;14.75;;;4.90;;
38089;SDS011;23904;52.322;10.232;2022-10-30T02:02:34;10.73;;;4.32;;
38089;SDS011;23904;52.322;10.232;2022-10-30T02:05:00;14.82;;;5.32;;
38089;SDS011;23904;52.322;10.232;2022-10-30T02:07:26;15.02;;;4.75;;
38089;SDS011;23904;52.322;10.232;2022-10-30T02:09:52;13.27;;;4.85;;
38089;SDS011;23904;52.322;10.232;2022-10-30T02:12:19;19.48;;;5.45;;
38089;SDS011;23904;52.322;10.232;2022-10-30T02:14:47;9.02;;;4.18;;
38089;SDS011;23904;52.322;10.232;2022-10-30T02:17:18;15.50;;;4.63;;
38089;SDS011;23904;52.322;10.232;2022-10-30T02:19:44;15.77;;;4.70;;
38089;SDS011;23904;52.322;10.232;2022-10-30T02:22:10;10.57;;;4.97;;
38089;SDS011;23904;52.322;10.232;2022-10-30T02:24:36;12.43;;;5.28;;
38089;SDS011;23904;52.322;10.232;2022-10-30T02:27:02;15.27;;;4.95;;
38089;SDS011;23904;52.322;10.232;2022-10-30T02:29:27;11.23;;;4.93;;
38089;SDS011;23904;52.322;10.232;2022-10-30T02:31:53;13.15;;;4.80;;
38089;SDS011;23904;52.322;10.232;2022-10-30T02:34:19;11.43;;;4.72;;
38089;SDS011;23904;52.322;10.232;2022-10-30T02:36:45;15.43;;;5.30;;
38089;SDS011;23904;52.322;10.232;2022-10-30T02:39:10;15.90;;;5.38;;
38089;SDS011;23904;52.322;10.232;2022-10-30T02:41:36;12.32;;;5.25;;
38089;SDS011;23904;52.322;10.232;2022-10-30T02:44:02;15.23;;;5.30;;
38089;SDS011;23904;52.322;10.232;2022-10-30T02:46:29;17.73;;;6.10;;
38089;SDS011;23904;52.322;10.232;2022-10-30T02:48:54;13.15;;;5.15;;
38089;SDS011;23904;52.322;10.232;2022-10-30T02:51:20;12.48;;;4.57;;
38089;SDS011;23904;52.322;10.232;2022-10-30T02:53:45;12.40;;;4.65;;
38089;SDS011;23904;52.322;10.232;2022-10-30T02:56:12;11.63;;;5.18;;
38089;SDS011;23904;52.322;10.232;2022-10-30T02:58:39;13.40;;;5.45;;
38089;SDS011;23904;52.322;10.232;2022-10-30T03:01:10;11.45;;;4.75;;
38089;SDS011;23904;52.322;10.232;2022-10-30T03:03:38;18.50;;;4.80;;
38089;SDS011;23904;52.322;10.232;2022-10-30T03:06:05;16.08;;;5.13;;
38089;SDS011;23904;52.322;10.232;2022-10-30T03:08:35;14.23;;;4.78;;
38089;SDS011;23904;52.322;10.232;2022-10-30T03:11:05;12.35;;;5.20;;
38089;SDS011;23904;52.322;10.232;2022-10-30T03:13:33;13.73;;;5.50;;
38089;SDS011;23904;52.322;10.232;2022-10-30T03:16:04;21.02;;;6.05;;
38089;SDS011;23904;52.322;10.232;2022-10-30T03:18:33;16.42;;;6.28;;
38089;SDS011;23904;52.322;10.232;2022-10-30T03:21:00;19.05;;;6.13;;
38089;SDS011;23904;52.322;10.232;2022-10-30T03:23:30;15.35;;;5.47;;
38089;SDS011;23904;52.322;10.232;2022-10-30T03:25:56;18.73;;;5.05;;
38089;SDS011;23904;52.322;10.232;2022-10-30T03:28:24;17.08;;;5.57;;
38089;SDS011;23904;52.322;10.232;2022-10-30T03:31:03;13.30;;;5.50;;
38089;SDS011;23904;52.322;10.232;2022-10-30T03:33:36;15.38;;;4.65;;
38089;SDS011;23904;52.322;10.232;2022-10-30T03:36:03;13.55;;;4.97;;
38089;SDS011;23904;52.322;10.232;2022-10-30T03:38:31;9.63;;;4.55;;
38089;SDS011;23904;52.322;10.232;2022-10-30T03:40:57;16.15;;;5.65;;
38089;SDS011;23904;52.322;10.232;2022-10-30T03:43:23;18.90;;;5.60;;
38089;SDS011;23904;52.322;10.232;2022-10-30T03:45:50;19.67;;;4.50;;
38089;SDS011;23904;52.322;10.232;2022-10-30T03:48:18;14.82;;;4.88;;
38089;SDS011;23904;52.322;10.232;2022-10-30T03:50:46;11.85;;;4.70;;
38089;SDS011;23904;52.322;10.232;2022-10-30T03:53:13;17.77;;;5.22;;
38089;SDS011;23904;52.322;10.232;2022-10-30T03:55:39;15.82;;;5.70;;
38089;SDS011;23904;52.322;10.232;2022-10-30T03:58:05;12.85;;;4.47;;
38089;SDS011;23904;52.322;10.232;2022-10-30T04:00:32;15.50;;;4.65;;
38089;SDS011;23904;52.322;10.232;2022-10-30T04:03:00;12.15;;;5.00;;
38089;SDS011;23904;52.322;10.232;2022-10-30T04:05:26;16.45;;;5.70;;
38089;SDS011;23904;52.322;10.232;2022-10-30T04:08:00;15.50;;;4.63;;
38089;SDS011;23904;52.322;10.232;2022-10-30T04:10:28;16.10;;;5.45;;
38089;SDS011;23904;52.322;10.232;2022-10-30T04:13:00;15.15;;;5.88;;
38089;SDS011;23904;52.322;10.232;2022-10-30T04:15:28;19.63;;;5.18;;
38089;SDS011;23904;52.322;10.232;2022-10-30T04:17:54;11.90;;;4.90;;
38089;SDS011;23904;52.322;10.232;2022-10-30T04:20:21;12.32;;;6.43;;
38089;SDS011;23904;52.322;10.232;2022-10-30T04:22:48;18.60;;;5.65;;
38089;SDS011;23904;52.322;10.232;2022-10-30T04:25:19;12.82;;;4.68;;
38089;SDS011;23904;52.322;10.232;2022-10-30T04:27:45;13.50;;;5.25;;
38089;SDS011;23904;52.322;10.232;2022-10-30T04:30:11;11.27;;;5.82;;
38089;SDS011;23904;52.322;10.232;2022-10-30T04:35:12;11.20;;;5.15;;
38089;SDS011;23904;52.322;10.232;2022-10-30T04:37:39;16.13;;;4.88;;
38089;SDS011;23904;52.322;10.232;2022-10-30T04:40:05;13.93;;;5.13;;
38089;SDS011;23904;52.322;10.232;2022-10-30T04:42:31;13.95;;;4.72;;
38089;SDS011;23904;52.322;10.232;2022-10-30T04:44:58;20.00;;;5.95;;
38089;SDS011;23904;52.322;10.232;2022-10-30T04:47:26;16.75;;;5.60;;
38089;SDS011;23904;52.322;10.232;2022-10-30T04:49:53;20.67;;;5.88;;
38089;SDS011;23904;52.322;10.232;2022-10-30T04:52:19;14.57;;;6.15;;
38089;SDS011;23904;52.322;10.232;2022-10-30T04:54:44;14.02;;;4.85;;
38089;SDS011;23904;52.322;10.232;2022-10-30T04:57:10;17.75;;;5.72;;
38089;SDS011;23904;52.322;10.232;2022-10-30T04:59:35;16.63;;;5.70;;
38089;SDS011;23904;52.322;10.232;2022-10-30T05:02:01;18.67;;;5.60;;
38089;SDS011;23904;52.322;10.232;2022-10-30T05:04:27;20.58;;;5.10;;
38089;SDS011;23904;52.322;10.232;2022-10-30T05:06:52;15.27;;;5.18;;
38089;SDS011;23904;52.322;10.232;2022-10-30T05:09:18;12.93;;;5.10;;
38089;SDS011;23904;52.322;10.232;2022-10-30T05:11:44;21.38;;;6.65;;
38089;SDS011;23904;52.322;10.232;2022-10-30T05:14:09;15.18;;;5.55;;
38089;SDS011;23904;52.322;10.232;2022-10-30T05:16:35;18.17;;;5.25;;
38089;SDS011;23904;52.322;10.232;2022-10-30T05:19:00;15.13;;;4.55;;
38089;SDS011;23904;52.322;10.232;2022-10-30T05:21:26;16.63;;;5.05;;
38089;SDS011;23904;52.322;10.232;2022-10-30T05:23:52;16.77;;;5.38;;
38089;SDS011;23904;52.322;10.232;2022-10-30T05:26:17;21.90;;;6.90;;
38089;SDS011;23904;52.322;10.232;2022-10-30T05:28:43;15.35;;;5.22;;
38089;SDS011;23904;52.322;10.232;2022-10-30T05:31:10;11.98;;;5.05;;
38089;SDS011;23904;52.322;10.232;2022-10-30T05:33:35;19.02;;;5.75;;
38089;SDS011;23904;52.322;10.232;2022-10-30T05:36:01;13.80;;;5.60;;
38089;SDS011;23904;52.322;10.232;2022-10-30T05:38:27;12.88;;;4.57;;
38089;SDS011;23904;52.322;10.232;2022-10-30T05:40:52;22.55;;;6.72;;
38089;SDS011;23904;52.322;10.232;2022-10-30T05:43:18;13.45;;;5.13;;
38089;SDS011;23904;52.322;10.232;2022-10-30T05:45:44;12.82;;;5.68;;
38089;SDS011;23904;52.322;10.232;2022-10-30T05:48:12;11.15;;;4.82;;
38089;SDS011;23904;52.322;10.232;2022-10-30T05:50:38;20.42;;;5.45;;
38089;SDS011;23904;52.322;10.232;2022-10-30T05:53:04;18.88;;;6.70;;
38089;SDS011;23904;52.322;10.232;2022-10-30T05:55:30;16.25;;;5.10;;
38089;SDS011;23904;52.322;10.232;2022-10-30T06:00:27;15.35;;;6.18;;
38089;SDS011;23904;52.322;10.232;2022-10-30T06:02:59;12.07;;;5.45;;
38089;SDS011;23904;52.322;10.232;2022-10-30T06:05:30;14.73;;;5.82;;
38089;SDS011;23904;52.322;10.232;2022-10-30T06:08:00;12.93;;;5.13;;
38089;SDS011;23904;52.322;10.232;2022-10-30T06:10:27;15.07;;;5.80;;
38089;SDS011;23904;52.322;10.232;2022-10-30T06:12:53;11.50;;;5.80;;
38089;SDS011;23904;52.322;10.232;2022-10-30T06:15:27;17.02;;;5.85;;
38089;SDS011;23904;52.322;10.232;2022-10-30T06:17:54;15.18;;;5.22;;
38089;SDS011;23904;52.322;10.232;2022-10-30T06:20:22;18.75;;;6.35;;
38089;SDS011;23904;52.322;10.232;2022-10-30T06:22:57;10.00;;;4.93;;
38089;SDS011;23904;52.322;10.232;2022-10-30T06:25:31;12.85;;;5.55;;
38089;SDS011;23904;52.322;10.232;2022-10-30T06:27:59;15.90;;;5.00;;
38089;SDS011;23904;52.322;10.232;2022-10-30T06:30:26;14.43;;;5.68;;
38089;SDS011;23904;52.322;10.232;2022-10-30T06:32:56;19.10;;;5.78;;
38089;SDS011;23904;52.322;10.232;2022-10-30T06:35:26;13.38;;;5.28;;
38089;SDS011;23904;52.322;10.232;2022-10-30T06:37:53;16.52;;;5.72;;
38089;SDS011;23904;52.322;10.232;2022-10-30T06:40:20;13.85;;;5.20;;
38089;SDS011;23904;52.322;10.232;2022-10-30T06:42:48;13.45;;;5.32;;
38089;SDS011;23904;52.322;10.232;2022-10-30T06:45:15;15.02;;;5.22;;
38089;SDS011;23904;52.322;10.232;2022-10-30T06:47:42;17.70;;;5.25;;
38089;SDS011;23904;52.322;10.232;2022-10-30T06:50:09;13.18;;;6.20;;
38089;SDS011;23904;52.322;10.232;2022-10-30T06:52:37;21.20;;;5.50;;
38089;SDS011;23904;52.322;10.232;2022-10-30T06:55:03;19.92;;;5.50;;
38089;SDS011;23904;52.322;10.232;2022-10-30T06:57:30;16.13;;;6.38;;
38089;SDS011;23904;52.322;10.232;2022-10-30T06:59:55;27.30;;;7.43;;
38089;SDS011;23904;52.322;10.232;2022-10-30T07:02:21;17.55;;;6.05;;
38089;SDS011;23904;52.322;10.232;2022-10-30T07:04:47;15.18;;;5.78;;
38089;SDS011;23904;52.322;10.232;2022-10-30T07:07:13;17.63;;;5.80;;
38089;SDS011;23904;52.322;10.232;2022-10-30T07:09:39;14.30;;;5.70;;
38089;SDS011;23904;52.322;10.232;2022-10-30T07:12:05;12.65;;;5.13;;
38089;SDS011;23904;52.322;10.232;2022-10-30T07:14:32;16.10;;;5.93;;
38089;SDS011;23904;52.322;10.232;2022-10-30T07:16:58;15.80;;;5.53;;
38089;SDS011;23904;52.322;10.232;2022-10-30T07:19:24;17.48;;;5.25;;
38089;SDS011;23904;52.322;10.232;2022-10-30T07:21:49;14.27;;;5.10;;
38089;SDS011;23904;52.322;10.232;2022-10-30T07:24:15;16.15;;;6.28;;
38089;SDS011;23904;52.322;10.232;2022-10-30T07:26:41;10.35;;;5.53;;
38089;SDS011;23904;52.322;10.232;2022-10-30T07:29:07;16.00;;;5.68;;
38089;SDS011;23904;52.322;10.232;2022-10-30T07:31:32;15.95;;;6.00;;
38089;SDS011;23904;52.322;10.232;2022-10-30T07:33:58;10.23;;;5.28;;
38089;SDS011;23904;52.322;10.232;2022-10-30T07:36:24;12.57;;;6.07;;
38089;SDS011;23904;52.322;10.232;2022-10-30T07:38:49;12.07;;;6.10;;
38089;SDS011;23904;52.322;10.232;2022-10-30T07:41:19;16.63;;;6.07;;
38089;SDS011;23904;52.322;10.232;2022-10-30T07:43:45;13.00;;;5.95;;
38089;SDS011;23904;52.322;10.232;2022-10-30T07:46:12;20.95;;;6.18;;
38089;SDS011;23904;52.322;10.232;2022-10-30T07:48:38;11.00;;;5.43;;
38089;SDS011;23904;52.322;10.232;2022-10-30T07:51:04;12.60;;;5.70;;
38089;SDS011;23904;52.322;10.232;2022-10-30T07:53:30;13.23;;;5.63;;
38089;SDS011;23904;52.322;10.232;2022-10-30T07:55:56;15.48;;;5.88;;
38089;SDS011;23904;52.322;10.232;2022-10-30T07:58:22;17.33;;;6.75;;
38089;SDS011;23904;52.322;10.232;2022-10-30T08:00:48;14.82;;;5.95;;
38089;SDS011;23904;52.322;10.232;2022-10-30T08:03:13;11.90;;;6.07;;
38089;SDS011;23904;52.322;10.232;2022-10-30T08:05:40;15.98;;;5.93;;
38089;SDS011;23904;52.322;10.232;2022-10-30T08:08:06;12.88;;;5.32;;
38089;SDS011;23904;52.322;10.232;2022-10-30T08:10:32;15.38;;;5.60;;
38089;SDS011;23904;52.322;10.232;2022-10-30T08:12:59;15.93;;;5.45;;
38089;SDS011;23904;52.322;10.232;2022-10-30T08:15:24;18.10;;;5.85;;
38089;SDS011;23904;52.322;10.232;2022-10-30T08:17:50;17.35;;;5.75;;
38089;SDS011;23904;52.322;10.232;2022-10-30T08:20:18;14.10;;;5.10;;
38089;SDS011;23904;52.322;10.232;2022-10-30T08:22:50;22.45;;;5.38;;
38089;SDS011;23904;52.322;10.232;2022-10-30T08:25:16;15.93;;;5.20;;
38089;SDS011;23904;52.322;10.232;2022-10-30T08:28:00;18.80;;;6.10;;
38089;SDS011;23904;52.322;10.232;2022-10-30T08:30:29;16.27;;;6.18;;
38089;SDS011;23904;52.322;10.232;2022-10-30T08:32:58;14.88;;;5.50;;
38089;SDS011;23904;52.322;10.232;2022-10-30T08:35:26;12.65;;;5.65;;
38089;SDS011;23904;52.322;10.232;2022-10-30T08:37:56;11.45;;;5.15;;
38089;SDS011;23904;52.322;10.232;2022-10-30T08:40:23;13.93;;;5.50;;
38089;SDS011;23904;52.322;10.232;2022-10-30T08:42:51;17.63;;;5.78;;
38089;SDS011;23904;52.322;10.232;2022-10-30T08:45:18;13.75;;;5.70;;
38089;SDS011;23904;52.322;10.232;2022-10-30T08:47:45;12.57;;;6.35;;
38089;SDS011;23904;52.322;10.232;2022-10-30T08:50:12;11.95;;;4.80;;
38089;SDS011;23904;52.322;10.232;2022-10-30T08:52:38;17.38;;;4.95;;
38089;SDS011;23904;52.322;10.232;2022-10-30T08:55:04;11.50;;;5.50;;
38089;SDS011;23904;52.322;10.232;2022-10-30T08:57:34;20.98;;;5.90;;
38089;SDS011;23904;52.322;10.232;2022-10-30T09:00:01;22.35;;;5.63;;
38089;SDS011;23904;52.322;10.232;2022-10-30T09:02:29;17.10;;;5.60;;
38089;SDS011;23904;52.322;10.232;2022-10-30T09:04:54;20.10;;;5.95;;
38089;SDS011;23904;52.322;10.232;2022-10-30T09:07:20;10.93;;;4.72;;
38089;SDS011;23904;52.322;10.232;2022-10-30T09:09:46;12.63;;;5.03;;
38089;SDS011;23904;52.322;10.232;2022-10-30T09:12:11;18.20;;;5.85;;
38089;SDS011;23904;52.322;10.232;2022-10-30T09:14:37;12.82;;;5.45;;
38089;SDS011;23904;52.322;10.232;2022-10-30T09:17:02;13.15;;;4.80;;
38089;SDS011;23904;52.322;10.232;2022-10-30T09:19:28;19.40;;;6.43;;
38089;SDS011;23904;52.322;10.232;2022-10-30T09:21:54;18.73;;;5.82;;
38089;SDS011;23904;52.322;10.232;2022-10-30T09:24:19;23.05;;;6.60;;
38089;SDS011;23904;52.322;10.232;2022-10-30T09:26:45;12.45;;;5.00;;
38089;SDS011;23904;52.322;10.232;2022-10-30T09:29:10;13.00;;;4.90;;
38089;SDS011;23904;52.322;10.232;2022-10-30T09:31:36;12.40;;;4.93;;
38089;SDS011;23904;52.322;10.232;2022-10-30T09:34:02;14.93;;;5.50;;
38089;SDS011;23904;52.322;10.232;2022-10-30T09:36:27;12.63;;;4.82;;
38089;SDS011;23904;52.322;10.232;2022-10-30T09:38:53;12.95;;;4.53;;
38089;SDS011;23904;52.322;10.232;2022-10-30T09:44:30;20.23;;;5.28;;
38089;SDS011;23904;52.322;10.232;2022-10-30T09:47:43;9.73;;;4.10;;
38089;SDS011;23904;52.322;10.232;2022-10-30T09:50:27;16.52;;;5.13;;
38089;SDS011;23904;52.322;10.232;2022-10-30T09:53:06;18.70;;;4.10;;
38089;SDS011;23904;52.322;10.232;2022-10-30T09:56:00;11.57;;;4.57;;
38089;SDS011;23904;52.322;10.232;2022-10-30T09:58:51;13.52;;;4.57;;
38089;SDS011;23904;52.322;10.232;2022-10-30T10:01:50;13.30;;;4.25;;
38089;SDS011;23904;52.322;10.232;2022-10-30T10:07:18;15.10;;;3.92;;
38089;SDS011;23904;52.322;10.232;2022-10-30T10:09:48;10.60;;;4.38;;
38089;SDS011;23904;52.322;10.232;2022-10-30T10:12:25;15.95;;;5.07;;
38089;SDS011;23904;52.322;10.232;2022-10-30T10:14:59;11.13;;;4.82;;
38089;SDS011;23904;52.322;10.232;2022-10-30T10:17:33;14.23;;;4.38;;
38089;SDS011;23904;52.322;10.232;2022-10-30T10:20:03;14.60;;;5.07;;
38089;SDS011;23904;52.322;10.232;2022-10-30T10:22:47;13.55;;;4.38;;
38089;SDS011;23904;52.322;10.232;2022-10-30T10:25:15;18.23;;;5.13;;
38089;SDS011;23904;52.322;10.232;2022-10-30T10:30:25;10.77;;;4.80;;
38089;SDS011;23904;52.322;10.232;2022-10-30T10:33:32;14.93;;;4.72;;
38089;SDS011;23904;52.322;10.232;2022-10-30T10:51:04;12.77;;;5.07;;
38089;SDS011;23904;52.322;10.232;2022-10-30T10:53:17;16.15;;;5.55;;
38089;SDS011;23904;52.322;10.232;2022-10-30T10:55:48;10.77;;;4.60;;
38089;SDS011;23904;52.322;10.232;2022-10-30T10:58:24;13.68;;;4.40;;
38089;SDS011;23904;52.322;10.232;2022-10-30T11:01:00;17.08;;;4.40;;
38089;SDS011;23904;52.322;10.232;2022-10-30T11:03:39;17.55;;;4.65;;
38089;SDS011;23904;52.322;10.232;2022-10-30T11:06:34;18.30;;;4.43;;
38089;SDS011;23904;52.322;10.232;2022-10-30T11:09:13;11.35;;;4.68;;
38089;SDS011;23904;52.322;10.232;2022-10-30T11:11:45;17.77;;;4.88;;
38089;SDS011;23904;52.322;10.232;2022-10-30T11:14:23;14.40;;;4.97;;
38089;SDS011;23904;52.322;10.232;2022-10-30T11:19:48;17.25;;;4.65;;
38089;SDS011;23904;52.322;10.232;2022-10-30T11:22:24;17.10;;;4.47;;
38089;SDS011;23904;52.322;10.232;2022-10-30T11:25:32;17.73;;;4.95;;
38089;SDS011;23904;52.322;10.232;2022-10-30T11:27:59;9.57;;;4.30;;
38089;SDS011;23904;52.322;10.232;2022-10-30T11:30:28;16.42;;;5.13;;
38089;SDS011;23904;52.322;10.232;2022-10-30T11:32:57;17.10;;;5.53;;
38089;SDS011;23904;52.322;10.232;2022-10-30T11:35:45;11.00;;;5.00;;
38089;SDS011;23904;52.322;10.232;2022-10-30T11:38:11;12.60;;;5.00;;
38089;SDS011;23904;52.322;10.232;2022-10-30T11:40:47;11.00;;;4.10;;
38089;SDS011;23904;52.322;10.232;2022-10-30T11:43:17;13.32;;;4.28;;
38089;SDS011;23904;52.322;10.232;2022-10-30T11:45:46;11.18;;;4.45;;
38089;SDS011;23904;52.322;10.232;2022-10-30T11:48:35;15.07;;;4.35;;
38089;SDS011;23904;52.322;10.232;2022-10-30T11:51:02;14.75;;;4.25;;
38089;SDS011;23904;52.322;10.232;2022-10-30T11:55:59;12.82;;;3.80;;
38089;SDS011;23904;52.322;10.232;2022-10-30T11:58:30;8.40;;;3.83;;
38089;SDS011;23904;52.322;10.232;2022-10-30T12:01:04;12.95;;;4.30;;
38089;SDS011;23904;52.322;10.232;2022-10-30T12:03:47;11.52;;;4.38;;
38089;SDS011;23904;52.322;10.232;2022-10-30T12:09:02;15.13;;;4.75;;
38089;SDS011;23904;52.322;10.232;2022-10-30T12:11:44;9.45;;;4.72;;
38089;SDS011;23904;52.322;10.232;2022-10-30T12:14:23;16.58;;;3.72;;
38089;SDS011;23904;52.322;10.232;2022-10-30T12:16:52;11.95;;;4.10;;
38089;SDS011;23904;52.322;10.232;2022-10-30T12:19:20;10.93;;;4.30;;
38089;SDS011;23904;52.322;10.232;2022-10-30T12:21:49;19.20;;;5.18;;
38089;SDS011;23904;52.322;10.232;2022-10-30T12:24:28;14.40;;;5.30;;
38089;SDS011;23904;52.322;10.232;2022-10-30T12:27:03;12.93;;;4.65;;
38089;SDS011;23904;52.322;10.232;2022-10-30T12:32:52;17.00;;;5.10;;
38089;SDS011;23904;52.322;10.232;2022-10-30T12:35:35;18.08;;;4.85;;
38089;SDS011;23904;52.322;10.232;2022-10-30T12:46:53;13.75;;;5.28;;
38089;SDS011;23904;52.322;10.232;2022-10-30T12:49:42;25.02;;;6.35;;
38089;SDS011;23904;52.322;10.232;2022-10-30T12:52:18;10.65;;;4.47;;
38089;SDS011;23904;52.322;10.232;2022-10-30T12:54:59;13.57;;;4.78;;
38089;SDS011;23904;52.322;10.232;2022-10-30T12:57:39;13.50;;;4.75;;
38089;SDS011;23904;52.322;10.232;2022-10-30T13:00:15;10.05;;;4.80;;
38089;SDS011;23904;52.322;10.232;2022-10-30T13:05:50;12.10;;;4.65;;
38089;SDS011;23904;52.322;10.232;2022-10-30T13:11:01;19.42;;;5.80;;
38089;SDS011;23904;52.322;10.232;2022-10-30T13:13:43;13.98;;;4.72;;
38089;SDS011;23904;52.322;10.232;2022-10-30T13:16:14;17.55;;;5.30;;
38089;SDS011;23904;52.322;10.232;2022-10-30T13:18:54;12.25;;;5.07;;
38089;SDS011;23904;52.322;10.232;2022-10-30T13:26:57;11.77;;;4.47;;
38089;SDS011;23904;52.322;10.232;2022-10-30T13:29:53;15.00;;;5.47;;
38089;SDS011;23904;52.322;10.232;2022-10-30T13:32:40;15.73;;;5.53;;
38089;SDS011;23904;52.322;10.232;2022-10-30T13:35:29;12.65;;;4.55;;
38089;SDS011;23904;52.322;10.232;2022-10-30T13:43:58;17.83;;;6.40;;
38089;SDS011;23904;52.322;10.232;2022-10-30T13:54:41;13.10;;;5.35;;
38089;SDS011;23904;52.322;10.232;2022-10-30T13:57:27;18.15;;;5.65;;
38089;SDS011;23904;52.322;10.232;2022-10-30T14:00:03;18.67;;;6.65;;
38089;SDS011;23904;52.322;10.232;2022-10-30T14:02:53;13.45;;;6.00;;
38089;SDS011;23904;52.322;10.232;2022-10-30T14:05:52;11.60;;;5.32;;
38089;SDS011;23904;52.322;10.232;2022-10-30T14:11:54;17.67;;;5.15;;
38089;SDS011;23904;52.322;10.232;2022-10-30T14:14:29;16.63;;;5.45;;
38089;SDS011;23904;52.322;10.232;2022-10-30T14:17:10;17.05;;;5.50;;
38089;SDS011;23904;52.322;10.232;2022-10-30T14:22:31;14.15;;;5.00;;
38089;SDS011;23904;52.322;10.232;2022-10-30T14:24:58;17.60;;;6.90;;
38089;SDS011;23904;52.322;10.232;2022-10-30T14:27:30;18.75;;;5.70;;
38089;SDS011;23904;52.322;10.232;2022-10-30T14:29:57;18.50;;;5.78;;
38089;SDS011;23904;52.322;10.232;2022-10-30T14:43:29;24.20;;;5.88;;
38089;SDS011;23904;52.322;10.232;2022-10-30T14:46:32;13.43;;;5.05;;
38089;SDS011;23904;52.322;10.232;2022-10-30T14:52:33;17.40;;;5.50;;
38089;SDS011;23904;52.322;10.232;2022-10-30T14:57:53;14.60;;;6.03;;
38089;SDS011;23904;52.322;10.232;2022-10-30T15:00:41;15.55;;;5.40;;
38089;SDS011;23904;52.322;10.232;2022-10-30T15:04:12;12.43;;;6.63;;
38089;SDS011;23904;52.322;10.232;2022-10-30T15:06:17;15.02;;;5.30;;
38089;SDS011;23904;52.322;10.232;2022-10-30T15:09:09;18.73;;;5.85;;
38089;SDS011;23904;52.322;10.232;2022-10-30T15:14:32;19.92;;;7.95;;
38089;SDS011;23904;52.322;10.232;2022-10-30T15:17:12;17.05;;;6.63;;
38089;SDS011;23904;52.322;10.232;2022-10-30T15:19:53;12.80;;;6.75;;
38089;SDS011;23904;52.322;10.232;2022-10-30T15:22:19;15.10;;;7.47;;
38089;SDS011;23904;52.322;10.232;2022-10-30T15:24:48;19.85;;;7.88;;
38089;SDS011;23904;52.322;10.232;2022-10-30T15:27:18;19.90;;;7.70;;
38089;SDS011;23904;52.322;10.232;2022-10-30T15:29:53;16.77;;;7.32;;
38089;SDS011;23904;52.322;10.232;2022-10-30T15:32:22;15.60;;;7.85;;
38089;SDS011;23904;52.322;10.232;2022-10-30T15:37:29;14.65;;;7.65;;
38089;SDS011;23904;52.322;10.232;2022-10-30T15:42:54;18.45;;;7.97;;
38089;SDS011;23904;52.322;10.232;2022-10-30T15:45:23;18.23;;;7.25;;
38089;SDS011;23904;52.322;10.232;2022-10-30T15:50:44;17.63;;;9.95;;
38089;SDS011;23904;52.322;10.232;2022-10-30T15:53:19;26.27;;;11.25;;
38089;SDS011;23904;52.322;10.232;2022-10-30T15:55:49;20.58;;;10.77;;
38089;SDS011;23904;52.322;10.232;2022-10-30T15:58:16;22.02;;;10.23;;
38089;SDS011;23904;52.322;10.232;2022-10-30T16:00:59;19.70;;;9.27;;
38089;SDS011;23904;52.322;10.232;2022-10-30T16:03:26;21.83;;;10.43;;
38089;SDS011;23904;52.322;10.232;2022-10-30T16:06:11;22.73;;;12.55;;
38089;SDS011;23904;52.322;10.232;2022-10-30T16:08:43;32.17;;;13.65;;
38089;SDS011;23904;52.322;10.232;2022-10-30T16:11:10;27.92;;;13.27;;
38089;SDS011;23904;52.322;10.232;2022-10-30T16:13:37;28.08;;;14.43;;
38089;SDS011;23904;52.322;10.232;2022-10-30T16:16:03;28.80;;;13.45;;
38089;SDS011;23904;52.322;10.232;2022-10-30T16:18:30;25.88;;;13.60;;
38089;SDS011;23904;52.322;10.232;2022-10-30T16:21:00;25.50;;;11.75;;
38089;SDS011;23904;52.322;10.232;2022-10-30T16:23:35;22.95;;;12.60;;
38089;SDS011;23904;52.322;10.232;2022-10-30T16:26:06;22.35;;;11.38;;
38089;SDS011;23904;52.322;10.232;2022-10-30T16:28:48;21.47;;;12.37;;
38089;SDS011;23904;52.322;10.232;2022-10-30T16:31:14;25.98;;;10.40;;
38089;SDS011;23904;52.322;10.232;2022-10-30T16:33:44;25.30;;;9.48;;
38089;SDS011;23904;52.322;10.232;2022-10-30T16:36:10;22.55;;;9.20;;
38089;SDS011;23904;52.322;10.232;2022-10-30T16:38:41;20.05;;;8.90;;
38089;SDS011;23904;52.322;10.232;2022-10-30T16:41:10;21.27;;;9.52;;
38089;SDS011;23904;52.322;10.232;2022-10-30T16:43:38;19.15;;;9.13;;
38089;SDS011;23904;52.322;10.232;2022-10-30T16:49:02;32.58;;;18.00;;
38089;SDS011;23904;52.322;10.232;2022-10-30T16:51:30;33.10;;;15.93;;
38089;SDS011;23904;52.322;10.232;2022-10-30T16:53:56;27.45;;;13.52;;